Time;durP1;ratioP1;P1;durP2;ratioP2;P2;SDS_P1;SDS_P2;PMS_P1;PMS_P2;Temp;Humidity;BMP_temperature;BMP_pressure;BME280_temperature;BME280_humidity;BME280_pressure;Samples;Min_cycle;Max_cycle;Signal;HPM_P1;HPM_P2
2022/03/31 00:00:47;;;;;;;47.35;21.82;;;;;;;10.45;46.11;97758.34;1778158;80;20968;-82
2022/03/31 00:03:17;;;;;;;51.42;22.27;;;;;;;10.41;47.45;97756.80;1767927;81;20916;-83
2022/03/31 00:05:44;;;;;;;52.62;23.18;;;;;;;10.39;47.73;97748.70;1751394;80;20987;-83
2022/03/31 00:08:14;;;;;;;57.48;24.00;;;;;;;10.37;46.34;97739.66;1767548;81;20976;-83
2022/03/31 00:10:45;;;;;;;60.17;24.63;;;;;;;10.34;45.90;97734.16;1750300;81;20983;-83
2022/03/31 00:13:17;;;;;;;53.40;22.67;;;;;;;10.28;46.66;97720.09;1754189;82;20967;-82
2022/03/31 00:15:44;;;;;;;57.20;22.13;;;;;;;10.25;47.02;97713.77;1747574;82;21056;-82
2022/03/31 00:18:12;;;;;;;46.10;20.27;;;;;;;10.22;49.35;97709.99;1755394;81;21004;-83
2022/03/31 00:20:39;;;;;;;55.85;21.55;;;;;;;10.22;46.57;97716.48;1730137;82;20987;-82
2022/03/31 00:23:06;;;;;;;55.10;21.85;;;;;;;10.22;47.16;97718.25;1752751;82;20980;-81
2022/03/31 00:25:33;;;;;;;50.58;21.23;;;;;;;10.22;47.84;97719.55;1756888;82;21030;-83
2022/03/31 00:28:03;;;;;;;47.80;21.80;;;;;;;10.22;48.27;97730.77;1745176;82;20975;-82
2022/03/31 00:30:30;;;;;;;43.55;19.90;;;;;;;10.24;48.93;97731.54;1761978;80;21026;-83
2022/03/31 00:32:57;;;;;;;56.00;21.15;;;;;;;10.25;47.53;97728.52;1760030;80;21048;-84
2022/03/31 00:35:25;;;;;;;44.27;20.32;;;;;;;10.22;47.23;97728.17;1756904;82;20985;-83
2022/03/31 00:37:51;;;;;;;61.77;23.55;;;;;;;10.21;47.69;97719.17;1743721;80;21012;-82
2022/03/31 00:40:20;;;;;;;48.42;20.80;;;;;;;10.23;49.05;97718.65;1758230;80;20989;-82
2022/03/31 00:42:51;;;;;;;50.75;19.35;;;;;;;10.24;48.15;97719.02;1765536;78;21617;-88
2022/03/31 00:45:26;;;;;;;52.00;20.72;;;;;;;10.23;48.87;97727.73;1716321;84;20992;-90
2022/03/31 00:47:56;;;;;;;59.73;21.12;;;;;;;10.23;48.02;97712.99;1709786;84;20925;-88
2022/03/31 00:50:23;;;;;;;59.38;21.02;;;;;;;10.25;48.14;97712.92;1709983;83;21097;-82
2022/03/31 00:52:50;;;;;;;58.83;21.73;;;;;;;10.25;49.76;97709.03;1697704;83;20969;-84
2022/03/31 00:55:19;;;;;;;52.75;22.02;;;;;;;10.26;49.46;97719.33;1715386;83;21008;-83
2022/03/31 00:57:47;;;;;;;51.02;18.75;;;;;;;10.27;48.69;97708.50;1711667;83;20952;-82
2022/03/31 01:00:15;;;;;;;49.18;20.00;;;;;;;10.28;48.89;97703.68;1715209;84;20985;-81
2022/03/31 01:02:44;;;;;;;48.83;18.82;;;;;;;10.28;48.42;97704.52;1711684;83;20955;-82
2022/03/31 01:05:14;;;;;;;48.65;17.95;;;;;;;10.25;48.88;97690.84;1698606;84;21027;-82
2022/03/31 01:07:41;;;;;;;46.13;17.73;;;;;;;10.21;50.08;97684.95;1713629;83;21450;-82
2022/03/31 01:10:11;;;;;;;43.02;17.25;;;;;;;10.18;50.30;97688.97;1714195;83;20949;-82
2022/03/31 01:12:37;;;;;;;38.15;16.50;;;;;;;10.13;48.13;97684.46;1715331;83;21500;-82
2022/03/31 01:15:12;;;;;;;38.75;17.15;;;;;;;10.04;49.27;97677.91;1711049;83;20965;-82
2022/03/31 01:17:40;;;;;;;38.23;17.00;;;;;;;9.98;48.92;97676.06;1705226;84;20921;-82
2022/03/31 01:20:10;;;;;;;41.60;18.17;;;;;;;9.91;49.90;97676.81;1709411;83;21577;-83
2022/03/31 01:22:36;;;;;;;45.10;18.70;;;;;;;9.85;49.77;97680.52;1715290;84;20937;-82
2022/03/31 01:25:07;;;;;;;51.68;18.23;;;;;;;9.77;49.58;97680.02;1712548;84;21024;-83
2022/03/31 01:27:42;;;;;;;37.98;17.05;;;;;;;9.70;50.58;97682.02;1713942;84;20941;-83
2022/03/31 01:30:15;;;;;;;42.67;17.62;;;;;;;9.63;50.22;97681.92;1712730;84;20977;-83
2022/03/31 01:32:44;;;;;;;46.37;18.10;;;;;;;9.57;50.10;97667.92;1712936;84;21024;-82
2022/03/31 01:35:12;;;;;;;45.20;16.82;;;;;;;9.47;50.09;97661.42;1706422;84;20985;-82
2022/03/31 01:37:39;;;;;;;38.50;17.65;;;;;;;9.40;48.94;97653.54;1714048;83;20985;-82
2022/03/31 01:40:08;;;;;;;41.55;16.57;;;;;;;9.34;50.36;97655.94;1685366;84;21007;-82
2022/03/31 01:42:34;;;;;;;50.45;18.75;;;;;;;9.26;51.25;97662.75;1715011;82;20972;-81
2022/03/31 01:45:03;;;;;;;43.33;18.50;;;;;;;9.19;50.34;97652.70;1708951;84;21024;-84
2022/03/31 01:47:29;;;;;;;42.13;17.50;;;;;;;9.10;52.62;97658.66;1703277;84;21453;-84
2022/03/31 01:49:56;;;;;;;49.93;19.25;;;;;;;9.05;52.14;97664.94;1714094;84;21025;-84
2022/03/31 01:52:23;;;;;;;47.45;18.67;;;;;;;9.01;51.25;97668.11;1699844;83;20992;-83
2022/03/31 01:54:50;;;;;;;48.25;18.37;;;;;;;8.98;51.51;97675.20;1697814;84;20992;-84
2022/03/31 01:57:17;;;;;;;38.60;18.95;;;;;;;8.95;52.55;97685.22;1687976;84;21417;-84
2022/03/31 01:59:44;;;;;;;45.40;19.95;;;;;;;8.93;52.26;97675.36;1713329;84;20977;-84
2022/03/31 02:02:13;;;;;;;42.78;19.17;;;;;;;8.91;50.07;97668.97;1714746;84;20984;-84
2022/03/31 02:04:41;;;;;;;49.73;19.32;;;;;;;8.87;52.80;97672.59;1714333;83;20964;-85
2022/03/31 02:07:09;;;;;;;46.35;21.12;;;;;;;8.83;50.71;97667.13;1712963;83;21012;-89
2022/03/31 02:09:36;;;;;;;51.00;20.48;;;;;;;8.79;50.16;97665.56;1714052;83;20922;-90
2022/03/31 02:12:04;;;;;;;47.35;21.17;;;;;;;8.74;50.30;97663.16;1714930;84;21509;-89
2022/03/31 02:14:33;;;;;;;50.80;20.50;;;;;;;8.69;51.42;97648.70;1716481;83;21012;-88
2022/03/31 02:16:59;;;;;;;44.25;20.40;;;;;;;8.65;52.25;97644.55;1713694;83;20978;-88
2022/03/31 02:19:26;;;;;;;53.15;21.40;;;;;;;8.62;52.77;97645.99;1715654;83;21016;-88
2022/03/31 02:21:54;;;;;;;48.38;20.48;;;;;;;8.60;52.16;97645.21;1714233;83;20985;-86
2022/03/31 02:24:21;;;;;;;50.52;21.12;;;;;;;8.59;53.78;97646.94;1709462;83;20981;-85
2022/03/31 02:26:48;;;;;;;40.90;19.42;;;;;;;8.58;53.42;97649.16;1712446;84;21036;-85
2022/03/31 02:29:15;;;;;;;50.12;20.35;;;;;;;8.60;54.39;97641.33;1702223;84;20965;-86
2022/03/31 02:31:41;;;;;;;48.23;20.25;;;;;;;8.58;53.29;97634.07;1709865;84;21004;-83
2022/03/31 02:34:08;;;;;;;48.58;20.20;;;;;;;8.59;54.05;97633.98;1714717;83;20949;-83
2022/03/31 02:36:35;;;;;;;43.25;18.07;;;;;;;8.58;55.72;97642.67;1714530;83;21809;-85
2022/03/31 02:39:02;;;;;;;42.60;17.65;;;;;;;8.56;55.38;97641.89;1703146;84;20945;-83
2022/03/31 02:41:29;;;;;;;36.63;17.70;;;;;;;8.55;53.61;97645.37;1715397;84;21001;-88
2022/03/31 02:43:56;;;;;;;50.23;17.95;;;;;;;8.56;54.35;97639.30;1712104;82;21024;-89
2022/03/31 02:46:23;;;;;;;46.63;17.87;;;;;;;8.54;55.02;97632.05;1714868;84;20933;-88
2022/03/31 02:48:50;;;;;;;46.08;21.05;;;;;;;8.54;55.25;97635.94;1715223;83;20996;-88
2022/03/31 02:51:16;;;;;;;45.92;19.80;;;;;;;8.54;54.57;97632.05;1713806;83;21024;-88
2022/03/31 02:56:29;;;;;;;41.48;18.07;;;;;;;8.54;54.52;97641.12;1715369;84;20969;-84
2022/03/31 02:58:57;;;;;;;44.35;17.65;;;;;;;8.51;53.24;97632.99;1709931;83;21480;-84
2022/03/31 03:01:23;;;;;;;38.85;18.00;;;;;;;8.50;53.43;97637.80;1714608;84;21002;-84
2022/03/31 03:03:53;;;;;;;41.20;18.60;;;;;;;8.51;52.78;97642.06;1709417;84;21048;-83
2022/03/31 03:06:19;;;;;;;43.02;17.55;;;;;;;8.49;53.38;97637.86;1713737;82;20913;-83
2022/03/31 03:08:46;;;;;;;45.60;19.50;;;;;;;8.51;54.98;97628.27;1691344;80;21026;-82
2022/03/31 03:11:17;;;;;;;42.98;17.60;;;;;;;8.53;51.69;97634.23;1692984;81;21028;-86
2022/03/31 03:13:42;;;;;;;39.45;16.82;;;;;;;8.50;53.27;97630.03;1686464;84;21007;-86
2022/03/31 03:16:09;;;;;;;37.73;17.10;;;;;;;8.51;54.13;97634.28;1686695;85;20976;-84
2022/03/31 03:18:36;;;;;;;43.83;18.05;;;;;;;8.53;54.29;97629.92;1686431;85;21032;-84
2022/03/31 03:21:04;;;;;;;39.25;18.20;;;;;;;8.53;54.73;97622.15;1686686;85;21715;-83
2022/03/31 03:23:33;;;;;;;43.95;19.10;;;;;;;8.53;54.92;97609.20;1709732;84;20988;-88
2022/03/31 03:26:01;;;;;;;41.15;18.37;;;;;;;8.53;54.26;97615.67;1715388;83;20989;-86
2022/03/31 03:28:29;;;;;;;41.50;17.62;;;;;;;8.53;55.31;97616.10;1715278;83;21074;-83
2022/03/31 03:30:57;;;;;;;38.42;16.35;;;;;;;8.51;54.70;97621.34;1715392;83;20949;-82
2022/03/31 03:33:24;;;;;;;41.40;18.45;;;;;;;8.49;55.21;97614.08;1715257;83;21032;-83
2022/03/31 03:35:50;;;;;;;50.25;18.67;;;;;;;8.48;54.77;97602.05;1715326;83;21016;-82
2022/03/31 03:38:17;;;;;;;38.80;16.67;;;;;;;8.47;52.81;97599.52;1715316;83;21020;-86
2022/03/31 03:40:44;;;;;;;57.20;20.15;;;;;;;8.44;54.19;97597.07;1715637;84;21468;-84
2022/03/31 03:43:11;;;;;;;42.62;18.95;;;;;;;8.40;53.47;97605.84;1716256;82;21103;-82
2022/03/31 03:45:38;;;;;;;40.70;18.90;;;;;;;8.36;52.62;97599.93;1734293;82;21023;-84
2022/03/31 03:48:11;;;;;;;50.90;23.32;;;;;;;8.27;52.52;97587.34;1770645;81;21773;-82
2022/03/31 03:50:38;;;;;;;49.60;20.20;;;;;;;8.24;55.62;97594.78;1770920;80;21042;-86
2022/03/31 03:53:08;;;;;;;42.83;18.00;;;;;;;8.19;55.09;97601.05;1769562;81;21010;-81
2022/03/31 03:55:37;;;;;;;42.73;17.55;;;;;;;8.15;53.09;97593.84;1737402;83;21060;-82
2022/03/31 03:58:04;;;;;;;40.95;16.45;;;;;;;8.14;54.83;97591.72;1709561;83;21033;-85
2022/03/31 04:00:32;;;;;;;47.05;17.52;;;;;;;8.14;53.53;97591.72;1730638;82;20956;-83
2022/03/31 04:02:59;;;;;;;52.23;18.95;;;;;;;8.13;55.68;97593.06;1740284;82;21028;-82
2022/03/31 04:05:26;;;;;;;41.25;18.10;;;;;;;8.09;55.36;97605.27;1735000;82;21500;-85
2022/03/31 04:07:52;;;;;;;44.85;18.70;;;;;;;8.02;56.69;97592.20;1717603;83;21027;-81
2022/03/31 04:10:19;;;;;;;44.95;19.02;;;;;;;8.09;53.90;97596.67;1770687;81;20999;-85
2022/03/31 04:12:45;;;;;;;53.85;18.40;;;;;;;8.11;54.16;97602.17;1770823;81;20995;-83
2022/03/31 04:15:15;;;;;;;50.05;20.30;;;;;;;8.15;54.57;97595.97;1770822;81;20977;-82
2022/03/31 04:17:43;;;;;;;41.85;17.52;;;;;;;8.18;55.14;97602.80;1770864;81;21029;-82
2022/03/31 04:20:11;;;;;;;58.63;18.50;;;;;;;8.21;55.40;97597.48;1770851;80;21472;-82
2022/03/31 04:22:38;;;;;;;49.93;18.30;;;;;;;8.26;56.54;97603.34;1770848;80;21011;-85
2022/03/31 04:25:07;;;;;;;50.35;18.82;;;;;;;8.32;56.12;97599.66;1745812;81;21016;-84
2022/03/31 04:27:35;;;;;;;53.95;19.50;;;;;;;8.38;56.00;97592.94;1705248;83;21008;-81
2022/03/31 04:30:09;;;;;;;50.92;19.75;;;;;;;8.42;56.33;97590.65;1729022;83;20972;-82
2022/03/31 04:32:36;;;;;;;;;;;;;;;8.43;56.33;97581.96;1773424;81;21010;-84
2022/03/31 04:35:04;;;;;;;47.38;17.55;;;;;;;8.43;57.92;97597.50;1734382;82;20098;-83
2022/03/31 04:37:32;;;;;;;52.53;18.02;;;;;;;8.46;57.72;97595.26;1770939;81;20970;-83
2022/03/31 04:39:59;;;;;;;44.70;17.52;;;;;;;8.46;55.16;97593.50;1740740;82;21042;-80
2022/03/31 04:42:25;;;;;;;48.63;20.37;;;;;;;8.45;57.76;97583.20;1705304;83;20999;-81
2022/03/31 04:44:52;;;;;;;52.53;22.32;;;;;;;8.45;57.28;97604.75;1693286;83;21080;-86
2022/03/31 04:47:19;;;;;;;57.50;22.13;;;;;;;8.47;57.55;97604.23;1691937;85;21011;-86
2022/03/31 04:49:45;;;;;;;64.80;26.25;;;;;;;8.50;56.65;97601.53;1715492;83;20989;-87
2022/03/31 04:52:12;;;;;;;51.68;24.07;;;;;;;8.53;56.20;97603.15;1715359;84;21012;-82
2022/03/31 04:54:43;;;;;;;50.95;23.55;;;;;;;8.52;56.31;97612.67;1715509;83;20988;-81
2022/03/31 04:57:08;;;;;;;56.68;22.02;;;;;;;8.54;56.65;97603.09;1715255;83;21024;-85
2022/03/31 04:59:35;;;;;;;55.03;21.95;;;;;;;8.58;57.27;97603.82;1715219;83;20989;-81
2022/03/31 05:02:01;;;;;;;59.88;23.12;;;;;;;8.60;56.09;97608.48;1718101;82;20984;-88
2022/03/31 05:04:28;;;;;;;58.10;23.50;;;;;;;8.61;55.82;97613.20;1723113;82;21016;-86
2022/03/31 05:06:55;;;;;;;49.38;21.82;;;;;;;8.62;56.09;97620.09;1723280;82;21504;-83
2022/03/31 05:09:21;;;;;;;61.33;21.97;;;;;;;8.63;54.80;97616.11;1723053;82;21003;-83
2022/03/31 05:11:48;;;;;;;48.28;21.15;;;;;;;8.66;53.99;97615.17;1722733;81;21011;-85
2022/03/31 05:14:15;;;;;;;60.85;21.37;;;;;;;8.64;55.31;97612.63;1723163;82;21014;-85
2022/03/31 05:16:41;;;;;;;51.15;21.05;;;;;;;8.65;55.74;97603.11;1693650;83;21045;-88
2022/03/31 05:19:08;;;;;;;49.85;20.57;;;;;;;8.69;56.03;97605.50;1715587;84;21059;-85
2022/03/31 05:21:34;;;;;;;51.98;24.37;;;;;;;8.73;56.48;97619.17;1693512;84;21051;-84
2022/03/31 05:24:01;;;;;;;54.98;23.60;;;;;;;8.77;54.33;97610.37;1715515;82;20984;-81
2022/03/31 05:26:28;;;;;;;52.08;22.40;;;;;;;8.80;54.98;97600.34;1715798;83;21080;-80
2022/03/31 05:28:55;;;;;;;52.05;22.42;;;;;;;8.83;55.49;97605.39;1716474;83;21122;-86
2022/03/31 05:31:21;;;;;;;50.17;21.25;;;;;;;8.87;55.48;97615.58;1712108;83;20929;-86
2022/03/31 05:33:48;;;;;;;48.45;20.77;;;;;;;8.92;55.16;97613.63;1710022;82;21068;-80
2022/03/31 05:36:15;;;;;;;51.13;21.50;;;;;;;8.96;55.71;97602.22;1704271;81;21032;-83
2022/03/31 05:38:42;;;;;;;56.30;21.30;;;;;;;9.02;55.75;97603.71;1708690;83;21000;-88
2022/03/31 05:41:08;;;;;;;58.65;23.07;;;;;;;9.07;55.72;97600.91;1686411;84;21542;-84
2022/03/31 05:43:35;;;;;;;50.45;20.05;;;;;;;9.13;53.87;97600.64;1684761;83;21031;-81
2022/03/31 05:46:02;;;;;;;51.95;21.55;;;;;;;9.15;55.41;97611.79;1714482;83;20988;-81
2022/03/31 05:48:28;;;;;;;43.00;19.57;;;;;;;9.19;55.33;97621.16;1710343;82;21007;-81
2022/03/31 05:50:55;;;;;;;56.05;21.07;;;;;;;9.21;55.38;97621.92;1714049;82;21007;-80
2022/03/31 05:53:22;;;;;;;50.25;21.37;;;;;;;9.24;54.46;97618.34;1750056;80;21008;-85
2022/03/31 05:55:49;;;;;;;55.65;20.60;;;;;;;9.26;53.69;97613.94;1711839;82;20940;-82
2022/03/31 05:58:16;;;;;;;46.08;20.92;;;;;;;9.23;54.64;97611.03;1746287;80;21023;-83
2022/03/31 06:00:43;;;;;;;48.85;22.35;;;;;;;9.26;54.10;97616.53;1743102;80;20976;-82
2022/03/31 06:03:10;;;;;;;50.60;23.22;;;;;;;9.31;53.95;97618.02;1715718;82;20976;-81
2022/03/31 06:05:37;;;;;;;62.30;24.32;;;;;;;9.35;53.43;97616.97;1748679;82;21061;-80
2022/03/31 06:08:04;;;;;;;70.12;27.62;;;;;;;9.41;54.05;97615.87;1741900;82;21008;-81
2022/03/31 06:10:31;;;;;;;64.20;25.08;;;;;;;9.49;54.02;97615.07;1712718;83;20972;-79
2022/03/31 06:12:58;;;;;;;71.53;24.95;;;;;;;9.56;54.04;97609.98;1744420;82;20928;-89
2022/03/31 06:15:25;;;;;;;65.67;25.68;;;;;;;9.65;53.33;97612.64;1716911;82;20953;-91
2022/03/31 06:17:52;;;;;;;54.33;23.02;;;;;;;9.70;53.56;97597.69;1705884;83;21027;-80
2022/03/31 06:20:20;;;;;;;59.90;20.57;;;;;;;9.78;53.87;97594.73;1747165;82;21023;-77
2022/03/31 06:22:46;;;;;;;50.60;20.62;;;;;;;9.84;53.34;97593.16;1745260;82;21518;-84
2022/03/31 06:25:14;;;;;;;47.45;20.50;;;;;;;9.89;53.14;97590.38;1750015;81;20956;-90
2022/03/31 06:27:40;;;;;;;51.55;22.13;;;;;;;9.90;53.48;97598.06;1738188;81;20937;-81
2022/03/31 06:30:08;;;;;;;46.58;20.70;;;;;;;9.91;53.57;97610.14;1751519;82;21011;-89
2022/03/31 06:32:35;;;;;;;45.60;19.82;;;;;;;10.00;53.56;97601.54;1713331;82;20972;-88
2022/03/31 06:35:02;;;;;;;47.73;20.02;;;;;;;10.07;52.81;97602.48;1749982;82;20978;-82
2022/03/31 06:37:29;;;;;;;47.50;20.12;;;;;;;10.13;53.12;97597.47;1741636;80;21047;-80
2022/03/31 06:39:56;;;;;;;48.73;20.43;;;;;;;10.18;52.86;97597.23;1744118;80;21029;-84
2022/03/31 06:42:23;;;;;;;51.53;20.40;;;;;;;10.14;52.27;97602.56;1714206;83;21017;-84
2022/03/31 06:44:49;;;;;;;48.38;22.37;;;;;;;10.16;51.97;97601.20;1751393;80;20960;-86
2022/03/31 06:47:16;;;;;;;54.38;22.62;;;;;;;10.10;52.14;97601.03;1717476;82;20976;-80
2022/03/31 06:49:44;;;;;;;48.17;21.77;;;;;;;10.13;52.13;97603.96;1696394;83;21730;-86
2022/03/31 06:52:11;;;;;;;50.28;20.68;;;;;;;10.20;52.09;97601.91;1718393;83;20991;-90
2022/03/31 06:54:38;;;;;;;62.62;21.97;;;;;;;10.30;51.67;97606.61;1725891;82;21019;-85
2022/03/31 06:57:04;;;;;;;52.85;22.27;;;;;;;10.31;51.54;97613.50;1719396;83;21004;-84
2022/03/31 06:59:31;;;;;;;51.83;22.25;;;;;;;10.34;51.46;97605.58;1727136;82;21122;-91
2022/03/31 07:01:58;;;;;;;46.13;21.12;;;;;;;10.38;51.51;97601.52;1725824;82;21504;-80
2022/03/31 07:04:25;;;;;;;58.87;22.27;;;;;;;10.44;51.27;97592.13;1761743;80;20951;-87
2022/03/31 07:06:52;;;;;;;47.95;22.40;;;;;;;10.48;51.08;97573.70;1721292;83;20975;-82
2022/03/31 07:09:18;;;;;;;50.38;22.73;;;;;;;10.52;51.08;97577.00;1722460;82;21037;-85
2022/03/31 07:11:45;;;;;;;65.47;24.90;;;;;;;10.58;50.96;97588.85;1721419;82;20988;-81
2022/03/31 07:14:12;;;;;;;137.12;57.38;;;;;;;10.62;50.74;97575.63;1717043;83;20971;-81
2022/03/31 07:16:39;;;;;;;99.50;34.85;;;;;;;10.69;50.84;97578.78;1724679;82;21043;-81
2022/03/31 07:19:05;;;;;;;51.25;21.80;;;;;;;10.79;50.76;97580.00;1710305;82;21044;-80
2022/03/31 07:21:32;;;;;;;54.58;25.30;;;;;;;10.84;50.62;97580.62;1712388;83;21006;-80
2022/03/31 07:24:00;;;;;;;50.98;20.88;;;;;;;10.86;50.59;97575.31;1717242;83;21052;-80
2022/03/31 07:26:27;;;;;;;62.62;23.70;;;;;;;10.96;50.59;97567.42;1717797;82;20992;-88
2022/03/31 07:28:57;;;;;;;58.13;25.15;;;;;;;11.06;50.49;97554.36;1719016;82;20941;-83
2022/03/31 07:31:26;;;;;;;71.70;26.80;;;;;;;11.14;49.95;97562.60;1719355;83;21051;-80
2022/03/31 07:33:53;;;;;;;65.87;28.95;;;;;;;11.20;49.66;97554.08;1717012;83;20985;-86
2022/03/31 07:36:19;;;;;;;71.42;32.67;;;;;;;11.25;49.63;97560.73;1716056;83;20994;-82
2022/03/31 07:38:46;;;;;;;71.47;33.63;;;;;;;11.29;49.56;97563.55;1717228;83;20965;-89
2022/03/31 07:41:15;;;;;;;62.15;27.67;;;;;;;11.37;49.55;97564.45;1725820;83;20960;-81
2022/03/31 07:43:42;;;;;;;55.98;26.75;;;;;;;11.44;49.25;97565.82;1717205;83;21023;-83
2022/03/31 07:46:10;;;;;;;50.33;21.93;;;;;;;11.51;49.13;97568.93;1717768;83;20970;-78
2022/03/31 07:48:37;;;;;;;46.42;21.45;;;;;;;11.58;48.89;97576.80;1693386;83;20950;-80
2022/03/31 07:51:04;;;;;;;43.92;21.12;;;;;;;11.60;48.32;97564.55;1716270;82;21068;-79
2022/03/31 07:53:33;;;;;;;61.35;22.82;;;;;;;11.68;48.01;97564.97;1718181;82;20969;-81
2022/03/31 07:56:02;;;;;;;60.80;25.43;;;;;;;11.69;47.90;97558.82;1693623;82;20971;-80
2022/03/31 07:58:29;;;;;;;65.80;26.60;;;;;;;11.73;47.20;97544.71;1722252;82;20932;-87
2022/03/31 08:00:56;;;;;;;54.50;24.37;;;;;;;11.75;47.57;97553.75;1724717;82;20972;-80
2022/03/31 08:03:23;;;;;;;58.02;24.80;;;;;;;11.84;47.29;97555.03;1734891;82;21005;-87
2022/03/31 08:05:51;;;;;;;49.08;20.15;;;;;;;11.87;47.21;97554.37;1742347;82;20994;-84
2022/03/31 08:08:19;;;;;;;56.35;19.32;;;;;;;11.93;46.81;97564.95;1733738;82;21005;-83
2022/03/31 08:10:46;;;;;;;48.70;20.65;;;;;;;11.99;46.70;97562.01;1731542;81;21034;-83
2022/03/31 08:13:17;;;;;;;47.80;20.25;;;;;;;12.05;46.38;97560.36;1732231;82;20955;-81
2022/03/31 08:15:44;;;;;;;54.10;21.93;;;;;;;12.10;46.40;97558.36;1738698;82;21047;-82
2022/03/31 08:18:11;;;;;;;50.88;22.05;;;;;;;12.21;46.19;97553.00;1739033;82;20991;-79
2022/03/31 08:20:38;;;;;;;52.20;21.95;;;;;;;12.31;46.69;97556.32;1712645;82;20971;-79
2022/03/31 08:23:05;;;;;;;57.00;23.95;;;;;;;12.43;46.66;97555.23;1723787;82;21108;-79
2022/03/31 08:25:32;;;;;;;58.23;23.18;;;;;;;12.47;46.51;97557.59;1720349;82;21044;-79
2022/03/31 08:27:58;;;;;;;59.93;24.82;;;;;;;12.56;46.30;97563.20;1719852;82;20968;-82
2022/03/31 08:30:25;;;;;;;59.67;25.50;;;;;;;12.66;46.35;97566.95;1724964;82;20964;-84
2022/03/31 08:32:52;;;;;;;54.98;22.55;;;;;;;12.66;46.08;97570.86;1713320;82;21058;-85
2022/03/31 08:35:19;;;;;;;60.58;24.20;;;;;;;12.60;46.04;97581.17;1708568;83;20983;-89
2022/03/31 08:37:46;;;;;;;57.05;25.82;;;;;;;12.64;46.03;97576.63;1689512;84;20951;-86
2022/03/31 08:40:14;;;;;;;58.63;24.35;;;;;;;12.62;45.95;97580.62;1712183;82;21043;-82
2022/03/31 08:42:42;;;;;;;60.70;26.52;;;;;;;12.67;46.06;97581.21;1711046;82;21002;-88
2022/03/31 08:45:16;;;;;;;57.45;23.18;;;;;;;12.75;45.97;97572.92;1713907;82;21034;-85
2022/03/31 08:47:45;;;;;;;54.60;25.35;;;;;;;12.76;45.96;97565.48;1706568;82;21090;-90
2022/03/31 08:50:13;;;;;;;53.13;24.10;;;;;;;12.81;45.97;97571.28;1723452;82;21020;-88
2022/03/31 08:52:40;;;;;;;51.53;21.68;;;;;;;12.80;45.82;97572.20;1721693;82;21765;-85
2022/03/31 08:55:09;;;;;;;57.98;21.70;;;;;;;12.82;45.82;97569.50;1728570;82;20966;-84
2022/03/31 08:57:45;;;;;;;45.52;20.80;;;;;;;12.91;45.56;97555.47;1716969;83;20996;-83
2022/03/31 09:00:14;;;;;;;50.43;22.42;;;;;;;12.86;45.28;97566.62;1727515;82;21434;-86
2022/03/31 09:02:57;;;;;;;52.62;23.95;;;;;;;12.90;45.08;97565.51;1727644;81;21037;-84
2022/03/31 09:05:24;;;;;;;52.80;23.85;;;;;;;12.94;45.15;97568.31;1692989;83;21069;-84
2022/03/31 09:08:00;;;;;;;63.48;27.05;;;;;;;13.03;44.98;97566.94;1703452;83;21519;-80
2022/03/31 09:10:37;;;;;;;53.95;25.43;;;;;;;13.06;44.73;97555.48;1694180;83;20985;-82
2022/03/31 09:13:20;;;;;;;58.05;24.65;;;;;;;13.11;43.69;97555.58;1724534;81;21014;-82
2022/03/31 09:15:57;;;;;;;51.70;24.30;;;;;;;13.09;43.99;97555.28;1725800;82;21020;-82
2022/03/31 09:18:26;;;;;;;53.92;25.37;;;;;;;13.12;43.93;97553.80;1689630;83;21043;-83
2022/03/31 09:20:57;;;;;;;58.75;25.30;;;;;;;13.18;43.93;97553.43;1670787;84;20991;-79
2022/03/31 09:23:28;;;;;;;55.60;25.23;;;;;;;13.26;44.20;97550.36;1675306;84;20983;-84
2022/03/31 09:26:10;;;;;;;55.15;23.87;;;;;;;13.27;43.82;97545.06;1675282;84;21319;-80
2022/03/31 09:28:37;;;;;;;51.58;24.75;;;;;;;13.30;43.81;97547.50;1672032;84;20980;-83
2022/03/31 09:31:05;;;;;;;54.63;24.15;;;;;;;13.32;43.79;97548.72;1668414;84;20928;-82
2022/03/31 09:33:48;;;;;;;56.20;24.75;;;;;;;13.37;43.69;97539.29;1679854;84;20981;-85
2022/03/31 09:36:23;;;;;;;58.10;25.57;;;;;;;13.44;43.94;97538.82;1731375;81;21451;-84
2022/03/31 09:39:02;;;;;;;62.08;26.48;;;;;;;13.51;43.74;97534.91;1731712;81;20979;-85
2022/03/31 09:41:33;;;;;;;54.23;24.43;;;;;;;13.61;43.98;97534.32;1731720;81;20996;-87
2022/03/31 09:44:03;;;;;;;54.67;22.70;;;;;;;13.66;43.78;97522.66;1729860;83;21576;-82
2022/03/31 09:46:38;;;;;;;58.00;24.20;;;;;;;13.62;43.69;97523.78;1728847;81;21495;-88
2022/03/31 09:49:26;;;;;;;51.60;23.87;;;;;;;13.64;43.84;97516.70;1731245;81;20962;-90
2022/03/31 09:52:04;;;;;;;56.77;24.23;;;;;;;13.67;43.68;97515.69;1705173;83;21551;-81
2022/03/31 09:54:33;;;;;;;51.63;22.85;;;;;;;13.59;43.59;97503.55;1703703;83;20972;-85
2022/03/31 09:57:02;;;;;;;47.78;23.10;;;;;;;13.55;43.53;97496.41;1722814;81;20972;-86
2022/03/31 09:59:40;;;;;;;57.55;23.42;;;;;;;13.51;43.48;97496.23;1732489;81;20975;-85
2022/03/31 10:02:08;;;;;;;51.42;21.55;;;;;;;13.51;43.64;97494.92;1727147;81;21040;-84
2022/03/31 10:04:35;;;;;;;47.23;21.23;;;;;;;13.48;43.44;97482.05;1725856;81;21525;-85
2022/03/31 10:07:03;;;;;;;49.27;22.87;;;;;;;13.48;43.34;97480.73;1723298;82;21085;-79
2022/03/31 10:09:32;;;;;;;52.38;21.93;;;;;;;13.46;43.38;97476.08;1720298;82;20963;-81
2022/03/31 10:12:19;;;;;;;46.70;22.48;;;;;;;13.50;43.33;97478.87;1722908;82;20980;-81
2022/03/31 10:14:56;;;;;;;53.63;22.60;;;;;;;13.46;43.30;97473.47;1725283;81;21471;-82
2022/03/31 10:17:31;;;;;;;58.98;24.07;;;;;;;13.48;43.42;97470.30;1720147;81;20979;-82
2022/03/31 10:20:10;;;;;;;49.00;23.25;;;;;;;13.50;43.41;97469.26;1726479;82;20972;-81
2022/03/31 10:25:34;;;;;;;61.63;24.50;;;;;;;13.62;43.57;97468.95;1727158;81;20958;-82
2022/03/31 10:28:12;;;;;;;55.17;24.10;;;;;;;13.66;43.22;97473.52;1724902;82;21027;-84
2022/03/31 10:30:40;;;;;;;57.60;24.37;;;;;;;13.62;43.38;97459.81;1724123;82;20961;-81
2022/03/31 10:33:08;;;;;;;56.15;25.10;;;;;;;13.70;43.26;97454.11;1726816;81;21475;-83
2022/03/31 10:35:41;;;;;;;52.25;23.62;;;;;;;13.76;43.10;97450.27;1723943;82;20983;-82
2022/03/31 10:38:17;;;;;;;56.63;25.72;;;;;;;13.82;43.24;97442.86;1726416;82;21024;-83
2022/03/31 10:40:49;;;;;;;57.30;24.50;;;;;;;13.91;42.89;97436.23;1719293;82;21470;-83
2022/03/31 10:43:31;;;;;;;63.73;25.45;;;;;;;13.97;43.13;97426.68;1728002;82;21005;-81
2022/03/31 10:46:01;;;;;;;54.87;25.33;;;;;;;14.09;43.05;97415.42;1704173;82;21023;-80
2022/03/31 10:48:31;;;;;;;58.90;25.85;;;;;;;14.15;42.69;97415.96;1712633;82;21789;-88
2022/03/31 10:51:07;;;;;;;54.60;26.73;;;;;;;14.30;42.97;97404.46;1700309;83;21051;-80
2022/03/31 10:53:39;;;;;;;55.43;26.12;;;;;;;14.44;42.56;97397.00;1740531;81;20989;-84
2022/03/31 10:56:24;;;;;;;55.30;25.77;;;;;;;14.52;42.17;97396.86;1753657;80;20999;-80
2022/03/31 10:58:52;;;;;;;61.02;25.80;;;;;;;14.65;42.11;97396.05;1715055;82;20965;-81
2022/03/31 11:01:21;;;;;;;56.55;25.43;;;;;;;14.76;41.80;97392.20;1736447;81;21055;-82
2022/03/31 11:03:54;;;;;;;56.25;24.87;;;;;;;14.88;41.08;97387.90;1709999;83;21528;-83
2022/03/31 11:06:18;;;;;;;57.15;25.92;;;;;;;14.96;41.16;97390.84;1704587;82;21000;-81
2022/03/31 11:08:48;;;;;;;58.08;23.70;;;;;;;15.09;41.22;97390.32;1739534;80;20913;-82
2022/03/31 11:11:28;;;;;;;54.63;24.87;;;;;;;15.19;40.96;97382.66;1737771;80;21101;-83
2022/03/31 11:13:58;;;;;;;68.17;29.52;;;;;;;15.35;40.87;97382.39;1716234;83;20988;-86
2022/03/31 11:16:38;;;;;;;75.12;28.60;;;;;;;15.54;40.63;97379.30;1740038;82;21019;-87
2022/03/31 11:19:07;;;;;;;62.38;26.52;;;;;;;15.84;40.24;97379.34;1747487;82;21004;-86
2022/03/31 11:21:36;;;;;;;61.65;26.33;;;;;;;16.06;38.67;97370.72;1743778;80;21012;-85
2022/03/31 11:24:05;;;;;;;57.70;25.10;;;;;;;16.29;39.26;97371.59;1705213;83;21495;-84
2022/03/31 11:26:46;;;;;;;58.05;24.12;;;;;;;16.55;38.55;97364.83;1752870;81;20988;-89
2022/03/31 11:29:16;;;;;;;58.73;25.40;;;;;;;16.77;38.80;97364.00;1744289;81;20975;-83
2022/03/31 11:31:49;;;;;;;57.40;23.55;;;;;;;17.12;37.49;97347.31;1719170;82;20970;-81
2022/03/31 11:34:22;;;;;;;58.63;25.27;;;;;;;17.52;37.81;97342.30;1748190;80;21023;-81